Time;durP1;ratioP1;P1;durP2;ratioP2;P2;SDS_P1;SDS_P2;PMS_P1;PMS_P2;Temp;Humidity;BMP_temperature;BMP_pressure;BME280_temperature;BME280_humidity;BME280_pressure;Samples;Min_cycle;Max_cycle;Signal;HPM_P1;HPM_P2
2022/03/17 00:00:28;;;;;;;19.20;12.50;;;23.40;49.30;;;;;;218917;1273;25321;-53
2022/03/17 00:05:42;;;;;;;19.80;12.90;;;23.40;49.10;;;;;;219866;1273;22180;-54
2022/03/17 00:10:51;;;;;;;18.20;11.90;;;23.50;49.10;;;;;;220306;1273;27531;-52
2022/03/17 00:15:58;;;;;;;24.80;13.70;;;23.50;49.70;;;;;;221209;1273;22568;-53
2022/03/17 00:21:03;;;;;;;21.00;13.50;;;23.50;48.80;;;;;;219240;1273;24304;-51
2022/03/17 00:26:11;;;;;;;22.30;13.30;;;23.50;48.80;;;;;;219315;1273;22796;-52
2022/03/17 00:31:39;;;;;;;19.20;13.20;;;23.50;48.80;;;;;;221578;1273;22701;-52
2022/03/17 00:36:47;;;;;;;22.00;13.40;;;23.50;48.60;;;;;;221177;1272;23108;-53
2022/03/17 00:41:55;;;;;;;22.40;13.40;;;23.50;48.80;;;;;;223333;1273;22417;-51
2022/03/17 00:47:03;;;;;;;18.10;12.30;;;23.50;48.40;;;;;;219353;1273;24217;-52
2022/03/17 00:52:11;;;;;;;20.90;12.90;;;23.50;48.30;;;;;;219707;1273;25390;-52
2022/03/17 00:57:14;;;;;;;17.40;11.90;;;23.50;48.10;;;;;;219287;1273;25009;-53
2022/03/17 01:02:24;;;;;;;20.50;12.70;;;23.50;48.20;;;;;;219647;1273;22694;-51
2022/03/17 01:07:32;;;;;;;21.30;13.10;;;23.50;48.00;;;;;;219197;1273;25631;-53
2022/03/17 01:12:40;;;;;;;19.10;13.00;;;23.60;48.10;;;;;;219056;1274;25475;-52
2022/03/17 01:17:44;;;;;;;19.10;12.30;;;23.60;48.00;;;;;;219122;1273;24464;-54
2022/03/17 01:22:48;;;;;;;18.80;12.50;;;23.60;48.10;;;;;;219267;1273;22558;-52
2022/03/17 01:27:51;;;;;;;17.60;13.10;;;23.60;48.20;;;;;;219952;1273;23513;-51
2022/03/17 01:32:55;;;;;;;17.10;12.40;;;23.60;48.60;;;;;;220363;1273;25290;-53
2022/03/17 01:37:58;;;;;;;18.70;12.60;;;23.70;48.30;;;;;;219117;1273;25502;-56
2022/03/17 01:43:03;;;;;;;19.60;12.70;;;23.60;48.30;;;;;;220680;1273;22842;-54
2022/03/17 01:48:16;;;;;;;23.40;12.90;;;23.60;48.20;;;;;;220917;1273;25366;-54
2022/03/17 01:53:25;;;;;;;18.00;11.90;;;23.70;48.00;;;;;;222338;1273;22576;-53
2022/03/17 01:58:32;;;;;;;17.40;12.50;;;23.60;47.90;;;;;;219294;1273;26557;-53
2022/03/17 02:03:43;;;;;;;24.80;13.70;;;23.70;48.00;;;;;;219674;1273;22673;-52
2022/03/17 02:08:51;;;;;;;18.30;13.00;;;23.70;47.90;;;;;;221462;1273;22599;-54
2022/03/17 02:13:55;;;;;;;18.70;12.10;;;23.70;47.80;;;;;;219443;1273;25593;-51
2022/03/17 02:18:59;;;;;;;19.80;13.20;;;23.70;47.70;;;;;;220713;1273;22596;-51
2022/03/17 02:29:31;;;;;;;20.70;12.20;;;23.70;47.50;;;;;;221695;1273;25554;-52
2022/03/17 02:34:35;;;;;;;21.60;13.90;;;23.70;47.80;;;;;;219047;1273;22744;-51
2022/03/17 02:39:42;;;;;;;18.90;12.20;;;23.70;47.80;;;;;;219580;1273;22637;-55
2022/03/17 02:44:49;;;;;;;21.30;12.70;;;23.70;47.30;;;;;;219750;1273;24281;-53
2022/03/17 02:49:55;;;;;;;19.30;12.50;;;23.70;47.30;;;;;;221692;1273;25359;-53
2022/03/17 02:54:59;;;;;;;19.70;12.40;;;23.70;47.50;;;;;;220434;1273;22568;-52
2022/03/17 03:00:08;;;;;;;18.80;12.60;;;23.70;47.30;;;;;;219445;1276;27373;-53
2022/03/17 03:05:12;;;;;;;19.70;13.20;;;23.70;47.30;;;;;;221731;1273;25366;-54
2022/03/17 03:10:15;;;;;;;18.40;12.10;;;23.70;47.60;;;;;;219063;1274;22548;-53
2022/03/17 03:15:19;;;;;;;22.40;13.00;;;23.80;47.40;;;;;;219426;1273;25734;-53
2022/03/17 03:20:23;;;;;;;22.00;12.00;;;23.80;47.50;;;;;;220466;1273;23940;-54
2022/03/17 03:25:27;;;;;;;22.40;12.90;;;23.80;47.40;;;;;;221325;1273;25493;-56
2022/03/17 03:30:30;;;;;;;16.70;11.80;;;23.80;47.40;;;;;;219926;1273;24283;-51
2022/03/17 03:41:01;;;;;;;18.40;12.40;;;23.70;47.90;;;;;;219991;1273;22560;-52
2022/03/17 03:46:04;;;;;;;17.50;11.90;;;23.70;47.90;;;;;;221788;1273;24297;-51
2022/03/17 03:51:08;;;;;;;15.70;11.70;;;23.60;47.90;;;;;;219493;1273;24311;-53
2022/03/17 03:56:12;;;;;;;19.20;12.20;;;23.50;47.80;;;;;;219235;1273;22592;-51
2022/03/17 04:01:15;;;;;;;17.40;12.50;;;23.40;47.70;;;;;;219164;1274;26500;-54
2022/03/17 04:06:19;;;;;;;17.00;12.10;;;23.40;47.80;;;;;;219298;1274;25550;-51
2022/03/17 04:11:22;;;;;;;19.90;12.20;;;23.40;47.80;;;;;;219135;1274;25572;-53
2022/03/17 04:16:26;;;;;;;20.90;13.20;;;23.30;48.00;;;;;;220571;1274;22808;-52
2022/03/17 04:21:30;;;;;;;17.30;12.80;;;23.30;48.00;;;;;;219091;1275;22992;-52
2022/03/17 04:26:34;;;;;;;18.90;13.00;;;23.20;47.90;;;;;;219757;1275;22581;-52
2022/03/17 04:31:39;;;;;;;20.00;12.80;;;23.10;47.90;;;;;;219470;1274;22617;-52
2022/03/17 04:36:42;;;;;;;20.30;14.00;;;23.10;48.10;;;;;;221249;1274;22594;-54
2022/03/17 04:41:46;;;;;;;21.30;14.30;;;23.00;48.20;;;;;;219626;1274;22549;-51
2022/03/17 04:46:49;;;;;;;20.20;13.00;;;23.00;48.50;;;;;;219136;1274;313600;-54
2022/03/17 04:51:53;;;;;;;19.80;13.30;;;23.00;48.20;;;;;;219706;1274;25274;-51
2022/03/17 04:56:57;;;;;;;20.90;13.70;;;22.90;48.30;;;;;;219310;1275;26555;-54
2022/03/17 05:02:00;;;;;;;20.10;13.90;;;22.90;47.90;;;;;;218931;1275;24335;-51
2022/03/17 05:07:04;;;;;;;21.40;13.70;;;22.80;48.30;;;;;;219763;1273;22688;-53
2022/03/17 05:12:09;;;;;;;22.30;13.20;;;22.80;48.50;;;;;;219044;1275;24367;-51
2022/03/17 05:17:12;;;;;;;19.40;13.10;;;22.80;48.60;;;;;;219795;1274;22804;-53
2022/03/17 05:22:17;;;;;;;19.40;13.10;;;22.80;48.60;;;;;;219837;1275;22560;-52
2022/03/17 05:27:25;;;;;;;20.50;12.60;;;22.70;48.70;;;;;;219226;1274;25378;-55
2022/03/17 05:32:29;;;;;;;21.00;13.50;;;22.70;48.80;;;;;;221514;1274;24261;-53
2022/03/17 05:37:34;;;;;;;26.90;13.90;;;22.60;49.00;;;;;;219424;1275;22602;-52
2022/03/17 05:42:48;;;;;;;27.10;14.50;;;22.60;48.80;;;;;;220279;1273;22728;-52
2022/03/17 05:47:54;;;;;;;20.40;13.00;;;22.50;49.00;;;;;;220228;1274;25412;-53
2022/03/17 05:52:57;;;;;;;22.20;13.10;;;22.50;49.10;;;;;;219896;1274;22722;-53
2022/03/17 05:58:01;;;;;;;24.40;13.60;;;22.60;49.50;;;;;;219121;1275;25694;-53
2022/03/17 06:03:05;;;;;;;20.80;12.30;;;22.90;48.70;;;;;;221134;1274;22538;-52
2022/03/17 06:08:09;;;;;;;17.50;10.70;;;23.00;48.20;;;;;;219532;1274;24135;-54
2022/03/17 06:13:13;;;;;;;17.10;11.70;;;23.20;47.80;;;;;;219089;1274;24329;-53
2022/03/17 06:18:19;;;;;;;26.80;13.00;;;23.30;48.00;;;;;;219054;1273;25558;-51
2022/03/17 06:23:22;;;;;;;36.80;16.10;;;23.30;47.90;;;;;;221207;1274;22532;-52
2022/03/17 06:28:26;;;;;;;41.10;16.10;;;23.40;47.70;;;;;;219358;1274;22596;-52
2022/03/17 06:33:30;;;;;;;20.70;13.00;;;23.40;47.80;;;;;;219158;1274;22532;-53
2022/03/17 06:38:33;;;;;;;40.70;15.50;;;23.40;48.10;;;;;;220542;1272;23391;-53
2022/03/17 06:43:37;;;;;;;22.00;12.40;;;23.40;48.70;;;;;;219574;1274;22705;-54
2022/03/17 06:48:41;;;;;;;21.70;12.20;;;23.40;48.90;;;;;;219354;1274;22755;-53
2022/03/17 06:53:47;;;;;;;25.30;13.60;;;23.40;49.20;;;;;;218968;1273;26627;-54
2022/03/17 06:58:50;;;;;;;20.10;12.10;;;23.40;48.70;;;;;;220963;1272;24312;-53
2022/03/17 07:03:58;;;;;;;17.20;11.80;;;23.30;49.30;;;;;;223343;1273;22545;-53
2022/03/17 07:09:02;;;;;;;24.30;11.60;;;23.40;49.70;;;;;;219395;1274;22560;-55
2022/03/17 07:14:05;;;;;;;26.10;13.10;;;23.50;49.50;;;;;;218919;1273;24453;-52
2022/03/17 07:19:10;;;;;;;17.80;11.80;;;23.50;49.40;;;;;;222119;1273;25193;-53
2022/03/17 07:24:14;;;;;;;24.30;13.50;;;23.60;49.30;;;;;;219099;1273;23369;-53
2022/03/17 07:29:17;;;;;;;27.80;17.30;;;23.60;48.80;;;;;;219540;1273;22555;-51
2022/03/17 07:34:21;;;;;;;26.30;16.50;;;23.40;47.10;;;;;;218986;1273;22560;-50
2022/03/17 07:39:25;;;;;;;23.00;15.90;;;23.40;47.50;;;;;;219962;1273;22798;-53
2022/03/17 07:44:29;;;;;;;22.00;15.10;;;23.40;47.40;;;;;;219250;1273;22473;-50
2022/03/17 07:49:52;;;;;;;22.50;13.60;;;23.50;47.40;;;;;;219093;1274;25381;-52
2022/03/17 07:54:56;;;;;;;18.90;13.70;;;23.40;47.70;;;;;;219088;1273;22567;-51
2022/03/17 08:00:11;;;;;;;24.20;14.70;;;23.40;47.40;;;;;;219273;1273;22550;-52
2022/03/17 08:05:18;;;;;;;23.00;14.60;;;23.30;47.40;;;;;;219301;1273;22538;-51
2022/03/17 08:10:25;;;;;;;23.80;15.50;;;23.30;47.40;;;;;;220918;1273;23436;-52
2022/03/17 08:15:31;;;;;;;23.80;14.50;;;23.30;47.40;;;;;;219051;1273;22629;-52
2022/03/17 08:20:41;;;;;;;25.10;15.70;;;23.20;47.40;;;;;;219111;1273;22541;-51
2022/03/17 08:25:45;;;;;;;27.40;15.70;;;23.20;47.40;;;;;;220187;1273;25320;-52
2022/03/17 08:30:51;;;;;;;28.10;15.00;;;23.20;47.30;;;;;;219353;1273;22703;-50
2022/03/17 08:35:57;;;;;;;20.90;14.30;;;23.20;47.60;;;;;;219212;1273;22539;-54
2022/03/17 08:41:01;;;;;;;24.80;16.10;;;23.10;46.90;;;;;;219043;1273;22635;-50
2022/03/17 08:51:28;;;;;;;21.40;14.90;;;23.10;46.70;;;;;;220633;1273;22759;-50
2022/03/17 08:56:36;;;;;;;20.50;14.40;;;23.00;47.10;;;;;;219278;1273;25499;-50
2022/03/17 09:01:42;;;;;;;20.00;14.70;;;23.00;47.00;;;;;;220603;1273;26552;-51
2022/03/17 09:06:46;;;;;;;26.50;15.70;;;23.00;47.50;;;;;;221322;1273;25240;-51
2022/03/17 09:11:50;;;;;;;22.60;14.20;;;23.00;47.10;;;;;;220458;1273;22212;-52
2022/03/17 09:17:04;;;;;;;37.50;17.80;;;23.00;47.10;;;;;;219827;1273;25461;-53
2022/03/17 09:22:13;;;;;;;34.70;16.70;;;22.90;47.10;;;;;;221499;1273;24133;-52
2022/03/17 09:27:18;;;;;;;30.30;16.10;;;22.90;47.30;;;;;;220981;1274;25619;-53
2022/03/17 09:32:24;;;;;;;26.70;16.30;;;22.90;47.00;;;;;;219052;1273;22620;-50
2022/03/17 09:37:28;;;;;;;31.30;16.80;;;22.90;47.10;;;;;;220552;1273;22673;-53
2022/03/17 09:42:32;;;;;;;21.00;14.40;;;22.80;46.90;;;;;;221288;1273;22631;-52
2022/03/17 09:47:41;;;;;;;21.30;13.50;;;22.80;47.00;;;;;;219161;1273;25055;-50
2022/03/17 09:52:47;;;;;;;23.10;14.90;;;22.80;47.30;;;;;;219952;1273;22670;-51
2022/03/17 09:57:53;;;;;;;24.50;14.90;;;22.80;47.20;;;;;;220336;1273;22807;-53
2022/03/17 10:02:57;;;;;;;24.80;15.00;;;22.80;47.60;;;;;;220964;1273;22558;-52
2022/03/17 10:08:02;;;;;;;24.40;15.10;;;22.80;47.60;;;;;;218917;1273;25643;-53
2022/03/17 10:13:14;;;;;;;28.00;15.40;;;22.80;47.60;;;;;;219470;1273;24380;-53
2022/03/17 10:18:23;;;;;;;29.50;15.50;;;22.80;47.90;;;;;;218715;1273;22607;-52
2022/03/17 10:23:32;;;;;;;21.00;13.60;;;22.80;48.60;;;;;;222754;1273;24304;-52
2022/03/17 10:28:44;;;;;;;18.50;13.10;;;22.70;48.20;;;;;;219249;1273;22715;-53
2022/03/17 10:33:54;;;;;;;27.30;15.10;;;22.70;48.10;;;;;;218745;1273;24237;-51
2022/03/17 10:38:58;;;;;;;20.10;13.20;;;22.70;48.10;;;;;;221382;1273;22563;-54
2022/03/17 10:44:02;;;;;;;27.20;15.40;;;22.70;46.40;;;;;;219179;1273;22579;-54
2022/03/17 10:49:07;;;;;;;22.50;14.50;;;22.60;47.40;;;;;;220569;1272;22560;-51
2022/03/17 10:54:18;;;;;;;27.40;14.80;;;22.70;47.30;;;;;;220396;1273;25556;-54
2022/03/17 10:59:43;;;;;;;22.90;13.80;;;22.60;47.40;;;;;;224980;1273;22427;-54
2022/03/17 11:04:47;;;;;;;22.90;13.30;;;22.60;47.60;;;;;;220117;1273;24229;-53
2022/03/17 11:09:52;;;;;;;25.50;13.60;;;22.70;47.90;;;;;;219473;1273;25363;-53
2022/03/17 11:14:57;;;;;;;26.00;13.60;;;22.90;47.70;;;;;;218832;1273;24237;-50
2022/03/17 11:20:16;;;;;;;21.50;12.70;;;23.00;47.10;;;;;;221589;1275;26562;-50
2022/03/17 11:25:29;;;;;;;21.60;14.00;;;23.10;47.00;;;;;;221130;1273;25380;-51
2022/03/17 11:30:59;;;;;;;24.10;13.90;;;23.20;46.80;;;;;;218965;1273;22772;-50
2022/03/17 11:36:13;;;;;;;31.10;15.70;;;23.20;46.60;;;;;;220619;1273;25115;-49
2022/03/17 11:41:22;;;;;;;22.90;13.30;;;23.20;46.70;;;;;;221244;1273;25288;-49
2022/03/17 11:46:46;;;;;;;23.80;13.00;;;23.20;46.60;;;;;;224373;1273;23164;-52
2022/03/17 11:52:08;;;;;;;24.30;13.50;;;23.30;46.40;;;;;;219090;1273;24259;-49
2022/03/17 11:57:19;;;;;;;26.40;14.10;;;23.30;46.40;;;;;;219050;1273;25522;-53
2022/03/17 12:02:38;;;;;;;24.20;13.70;;;23.30;46.30;;;;;;220857;1272;24523;-53
2022/03/17 12:07:47;;;;;;;20.80;12.90;;;23.40;46.60;;;;;;221836;1273;22555;-51
2022/03/17 12:12:50;;;;;;;28.60;13.00;;;23.40;46.40;;;;;;220053;1273;24314;-51
2022/03/17 12:18:16;;;;;;;25.10;13.50;;;23.40;46.30;;;;;;218696;1273;22573;-50
2022/03/17 12:23:49;;;;;;;22.80;13.00;;;23.30;46.10;;;;;;220781;1273;25053;-51
2022/03/17 12:28:53;;;;;;;23.40;13.70;;;23.30;45.20;;;;;;220320;1273;24524;-52
2022/03/17 12:34:01;;;;;;;23.90;12.60;;;23.40;45.40;;;;;;220120;1274;23021;-54
2022/03/17 12:39:06;;;;;;;29.10;14.40;;;23.40;45.50;;;;;;219314;1273;22897;-50
2022/03/17 12:44:24;;;;;;;23.70;12.80;;;23.40;48.30;;;;;;220119;1273;22639;-52
2022/03/17 12:49:36;;;;;;;21.10;12.40;;;23.40;48.10;;;;;;219288;1273;22546;-51
2022/03/17 12:54:53;;;;;;;22.50;12.00;;;23.50;48.00;;;;;;219053;1273;25636;-51
2022/03/17 13:00:23;;;;;;;28.60;14.20;;;23.50;47.50;;;;;;221897;1274;24344;-51
2022/03/17 13:17:05;;;;;;;24.90;12.80;;;23.60;47.00;;;;;;218971;1273;23080;-52
2022/03/17 13:22:09;;;;;;;21.40;12.60;;;23.50;46.80;;;;;;223320;1273;22559;-51
2022/03/17 13:27:25;;;;;;;25.00;13.30;;;23.60;46.80;;;;;;218930;1273;22555;-54
2022/03/17 13:32:43;;;;;;;19.30;12.10;;;23.60;46.60;;;;;;220532;1273;22551;-50
2022/03/17 13:37:51;;;;;;;20.10;11.80;;;23.60;46.50;;;;;;222607;1273;22541;-50
2022/03/17 13:43:24;;;;;;;18.80;11.70;;;23.60;46.50;;;;;;220392;1273;22637;-50
2022/03/17 13:48:31;;;;;;;16.40;10.70;;;23.60;46.30;;;;;;221607;1273;24241;-50
2022/03/17 13:53:39;;;;;;;22.70;12.70;;;23.60;46.40;;;;;;218946;1273;22567;-51
2022/03/17 13:58:45;;;;;;;25.70;12.30;;;23.60;46.60;;;;;;218747;1273;23056;-50
2022/03/17 14:03:52;;;;;;;20.80;11.60;;;23.60;46.60;;;;;;219903;1273;24311;-54
2022/03/17 14:09:10;;;;;;;22.60;12.40;;;23.60;46.20;;;;;;219048;1273;24214;-51
2022/03/17 14:14:23;;;;;;;19.10;11.30;;;23.60;46.10;;;;;;219004;1273;22657;-49
2022/03/17 14:19:26;;;;;;;19.70;11.50;;;23.60;46.30;;;;;;218771;1273;25588;-51
2022/03/17 14:24:30;;;;;;;26.40;11.80;;;23.60;46.10;;;;;;221515;1273;25956;-51
2022/03/17 14:29:34;;;;;;;30.30;12.90;;;23.60;46.10;;;;;;218753;1272;22662;-50
2022/03/17 14:34:41;;;;;;;20.00;11.30;;;23.60;45.90;;;;;;218991;1273;22540;-50
2022/03/17 14:39:45;;;;;;;18.60;10.80;;;23.60;45.50;;;;;;218964;1273;22652;-51
2022/03/17 14:44:49;;;;;;;18.50;10.30;;;23.60;45.20;;;;;;224950;1273;23154;-50
2022/03/17 14:49:54;;;;;;;19.80;11.20;;;23.60;44.80;;;;;;219497;1273;22577;-51
2022/03/17 14:54:57;;;;;;;14.90;9.80;;;23.60;44.40;;;;;;218722;1273;22540;-53
2022/03/17 15:00:02;;;;;;;17.70;10.10;;;23.70;44.20;;;;;;221815;1273;22600;-52
2022/03/17 15:05:06;;;;;;;16.40;9.90;;;23.60;44.30;;;;;;219358;1273;24230;-49
2022/03/17 15:10:10;;;;;;;27.30;11.70;;;23.70;44.10;;;;;;219825;1273;22768;-52
2022/03/17 15:15:14;;;;;;;30.50;11.30;;;23.60;43.50;;;;;;219428;1273;24290;-53
2022/03/17 15:20:17;;;;;;;17.30;10.30;;;23.60;43.30;;;;;;221140;1273;22396;-51
2022/03/17 15:25:22;;;;;;;18.10;10.40;;;23.60;43.10;;;;;;220170;1273;22820;-53
2022/03/17 15:30:25;;;;;;;19.00;10.30;;;23.60;42.90;;;;;;220058;1273;22542;-52
2022/03/17 15:35:32;;;;;;;17.60;10.10;;;23.60;42.70;;;;;;222433;1273;25331;-52
2022/03/17 15:40:37;;;;;;;19.50;10.20;;;23.60;42.90;;;;;;219000;1273;22574;-50
2022/03/17 15:45:44;;;;;;;17.90;10.20;;;23.60;42.40;;;;;;220821;1273;25582;-49
2022/03/17 15:50:47;;;;;;;21.70;10.70;;;23.60;42.20;;;;;;221527;1273;22597;-54
2022/03/17 15:55:52;;;;;;;19.70;10.30;;;23.60;42.00;;;;;;219958;1271;24769;-50
2022/03/17 16:00:56;;;;;;;14.40;8.70;;;23.60;41.80;;;;;;219047;1272;22664;-50
2022/03/17 16:06:00;;;;;;;17.50;9.40;;;23.60;41.70;;;;;;219287;1273;26868;-52
2022/03/17 16:16:28;;;;;;;15.60;9.10;;;23.60;41.50;;;;;;218740;1276;24369;-50
2022/03/17 16:21:38;;;;;;;15.50;9.30;;;23.70;41.70;;;;;;222830;1273;22622;-52
2022/03/17 16:26:49;;;;;;;13.50;8.40;;;23.70;41.30;;;;;;219581;1273;23046;-50
2022/03/17 16:31:59;;;;;;;14.60;9.20;;;23.70;41.10;;;;;;218887;1273;22533;-51
2022/03/17 16:37:06;;;;;;;16.30;9.60;;;23.70;41.00;;;;;;218897;1273;23994;-50
2022/03/17 16:42:10;;;;;;;22.20;10.30;;;23.70;41.00;;;;;;220958;1273;25566;-51
2022/03/17 16:47:16;;;;;;;30.60;11.40;;;23.60;41.00;;;;;;218871;1273;322672;-51
2022/03/17 16:52:24;;;;;;;18.70;9.70;;;23.60;40.80;;;;;;219300;1273;26385;-52
2022/03/17 16:57:29;;;;;;;23.70;10.70;;;23.70;40.80;;;;;;218809;1273;22686;-50
2022/03/17 17:02:36;;;;;;;27.50;11.40;;;23.60;40.80;;;;;;218804;1272;22553;-53
2022/03/17 17:07:41;;;;;;;19.80;9.70;;;23.60;40.60;;;;;;220003;1273;24305;-53
2022/03/17 17:12:48;;;;;;;16.50;9.50;;;23.60;40.50;;;;;;222798;1273;22535;-50
2022/03/17 17:18:04;;;;;;;17.00;9.50;;;23.60;40.20;;;;;;218770;1273;22567;-51
2022/03/17 17:34:43;;;;;;;15.80;9.30;;;23.60;41.00;;;;;;220556;1273;22582;-50
2022/03/17 17:39:52;;;;;;;19.40;10.30;;;23.50;41.00;;;;;;219840;1273;25341;-50
2022/03/17 17:45:04;;;;;;;18.80;10.60;;;23.50;42.00;;;;;;218769;1273;24327;-50
2022/03/17 17:50:20;;;;;;;17.50;9.90;;;23.40;41.60;;;;;;218964;1272;24397;-51
2022/03/17 17:55:28;;;;;;;21.50;11.30;;;23.30;41.90;;;;;;218415;1274;26605;-51
2022/03/17 18:00:46;;;;;;;20.90;10.90;;;23.30;42.20;;;;;;219218;1273;22690;-50
2022/03/17 18:05:58;;;;;;;16.10;10.30;;;23.20;42.60;;;;;;220216;1273;22575;-54
2022/03/17 18:11:03;;;;;;;19.90;11.20;;;23.10;42.10;;;;;;219486;1273;28118;-50
2022/03/17 18:16:12;;;;;;;15.70;10.40;;;23.10;42.20;;;;;;218946;1273;22554;-52
2022/03/17 18:21:16;;;;;;;18.20;11.80;;;23.10;43.00;;;;;;218981;1273;25326;-51
2022/03/17 18:26:26;;;;;;;16.80;10.40;;;23.00;43.40;;;;;;219456;1273;22547;-50
2022/03/17 18:31:36;;;;;;;18.40;11.60;;;23.00;44.00;;;;;;220339;1273;25398;-49
2022/03/17 18:36:40;;;;;;;20.00;11.60;;;23.00;44.50;;;;;;219150;1273;24391;-52
2022/03/17 18:41:44;;;;;;;45.80;16.00;;;22.90;44.70;;;;;;218945;1272;22528;-49
2022/03/17 18:46:48;;;;;;;38.60;15.50;;;22.90;44.70;;;;;;220930;1273;26496;-51
2022/03/17 18:51:56;;;;;;;32.90;15.70;;;23.00;44.90;;;;;;218780;1273;22580;-54
2022/03/17 18:57:11;;;;;;;28.00;14.40;;;22.90;44.50;;;;;;219209;1273;25533;-53
2022/03/17 19:02:20;;;;;;;29.50;14.00;;;22.90;44.60;;;;;;219551;1273;22537;-51
2022/03/17 19:07:28;;;;;;;32.70;15.20;;;22.90;45.10;;;;;;218956;1273;22558;-52
2022/03/17 19:12:37;;;;;;;30.40;13.70;;;22.90;46.20;;;;;;218891;1273;22557;-59
2022/03/17 19:17:51;;;;;;;31.20;14.50;;;22.90;47.40;;;;;;220245;1271;22606;-54
2022/03/17 19:23:14;;;;;;;31.30;14.30;;;22.80;47.80;;;;;;221269;1274;25070;-53
2022/03/17 19:28:22;;;;;;;23.00;13.10;;;22.80;48.20;;;;;;218597;1273;24327;-56
2022/03/17 19:33:31;;;;;;;24.10;13.60;;;22.70;48.30;;;;;;218987;1271;22538;-57
2022/03/17 19:38:36;;;;;;;34.00;13.20;;;22.70;49.00;;;;;;218612;1273;26987;-51
2022/03/17 19:43:45;;;;;;;21.40;12.10;;;22.60;49.20;;;;;;220778;1273;22547;-54
2022/03/17 19:48:52;;;;;;;26.20;13.80;;;22.60;48.90;;;;;;222878;1273;22645;-48
2022/03/17 19:54:09;;;;;;;23.20;13.30;;;22.60;50.40;;;;;;219072;1273;24240;-51
2022/03/17 19:59:13;;;;;;;37.40;15.60;;;22.50;49.80;;;;;;218947;1272;25358;-54
2022/03/17 20:04:16;;;;;;;39.20;16.00;;;22.50;49.30;;;;;;219025;1273;25291;-54
2022/03/17 20:09:22;;;;;;;25.80;13.00;;;22.50;50.80;;;;;;218942;1273;22547;-51
2022/03/17 20:14:46;;;;;;;32.50;13.60;;;22.40;51.30;;;;;;218790;1273;22560;-52
2022/03/17 20:19:51;;;;;;;22.70;13.40;;;22.40;52.00;;;;;;220413;1272;22577;-54
2022/03/17 20:24:55;;;;;;;33.40;12.10;;;22.30;51.50;;;;;;221709;1273;22550;-51
2022/03/17 20:29:59;;;;;;;25.90;11.90;;;22.50;52.60;;;;;;219355;1273;22538;-51
2022/03/17 20:35:05;;;;;;;34.00;13.70;;;22.70;52.70;;;;;;219162;1273;22733;-50
2022/03/17 20:40:09;;;;;;;29.50;11.40;;;22.80;52.90;;;;;;223477;1273;22568;-52
2022/03/17 20:45:20;;;;;;;19.90;11.50;;;23.10;53.10;;;;;;219629;1273;25177;-52
2022/03/17 20:50:29;;;;;;;22.90;11.00;;;23.30;53.30;;;;;;221077;1272;25358;-50
2022/03/17 20:55:34;;;;;;;24.00;12.00;;;23.40;54.70;;;;;;221156;1273;25768;-53
2022/03/17 21:00:41;;;;;;;26.20;11.40;;;23.40;54.10;;;;;;218761;1273;22538;-50
2022/03/17 21:05:54;;;;;;;29.50;12.20;;;23.60;56.30;;;;;;220131;1273;25575;-51
2022/03/17 21:11:19;;;;;;;29.90;10.20;;;23.70;57.60;;;;;;221510;1273;22535;-50
2022/03/17 21:16:25;;;;;;;20.80;10.90;;;23.70;57.80;;;;;;220422;1273;22761;-49
2022/03/17 21:21:44;;;;;;;26.80;10.60;;;23.80;57.50;;;;;;218767;1274;22878;-49
2022/03/17 21:26:53;;;;;;;20.50;9.80;;;23.70;56.80;;;;;;220024;1273;22538;-51
2022/03/17 21:31:58;;;;;;;20.70;11.20;;;23.60;57.00;;;;;;222172;1277;22555;-50
2022/03/17 21:37:11;;;;;;;21.10;11.10;;;23.70;57.30;;;;;;218742;1275;25236;-51
2022/03/17 21:42:15;;;;;;;26.30;11.40;;;23.80;56.90;;;;;;218667;1277;25339;-50
2022/03/17 21:47:19;;;;;;;25.50;10.90;;;23.80;57.10;;;;;;218660;1273;22809;-52
2022/03/17 21:52:28;;;;;;;23.10;9.90;;;23.90;59.40;;;;;;219647;1273;22548;-50
2022/03/17 21:57:32;;;;;;;20.10;11.20;;;24.00;59.60;;;;;;221418;1273;23089;-50
2022/03/17 22:02:36;;;;;;;22.80;11.00;;;23.90;59.90;;;;;;218867;1273;25557;-50
2022/03/17 22:07:41;;;;;;;18.80;10.60;;;23.90;60.60;;;;;;219607;1274;24441;-50
2022/03/17 22:12:48;;;;;;;17.90;9.60;;;23.80;60.70;;;;;;218684;1273;22640;-52
2022/03/17 22:17:53;;;;;;;18.40;10.40;;;23.70;60.90;;;;;;222102;1274;22593;-50
2022/03/17 22:22:56;;;;;;;16.90;8.80;;;23.60;61.10;;;;;;219034;1274;22535;-49
2022/03/17 22:28:01;;;;;;;23.10;9.80;;;23.60;61.20;;;;;;218678;1274;22559;-51
2022/03/17 22:33:05;;;;;;;28.10;11.30;;;23.40;61.50;;;;;;220064;1274;25654;-51
2022/03/17 22:38:09;;;;;;;28.00;11.90;;;23.30;61.50;;;;;;218500;1274;22679;-49
2022/03/17 22:43:13;;;;;;;24.40;11.20;;;23.20;61.30;;;;;;221380;1274;22570;-53
2022/03/17 22:48:18;;;;;;;33.20;12.10;;;23.20;61.10;;;;;;218869;1274;22726;-49
2022/03/17 22:53:22;;;;;;;34.40;12.50;;;23.10;61.50;;;;;;218978;1274;24454;-51
2022/03/17 22:58:28;;;;;;;31.20;11.60;;;23.00;61.70;;;;;;218637;1274;24248;-53
2022/03/17 23:03:35;;;;;;;37.00;13.40;;;23.00;61.70;;;;;;219772;1274;22552;-49
2022/03/17 23:08:39;;;;;;;25.40;10.90;;;22.90;62.00;;;;;;218687;1274;22531;-50
2022/03/17 23:13:43;;;;;;;32.50;11.60;;;22.90;62.20;;;;;;218945;1275;22577;-50
2022/03/17 23:18:52;;;;;;;28.80;10.60;;;22.90;62.00;;;;;;219222;1274;22568;-49
2022/03/17 23:24:07;;;;;;;27.20;10.60;;;22.80;62.20;;;;;;220228;1273;24247;-50
2022/03/17 23:29:17;;;;;;;20.10;9.30;;;22.80;62.20;;;;;;222141;1272;25262;-51
2022/03/17 23:34:24;;;;;;;20.10;9.70;;;22.70;62.10;;;;;;218956;1274;22814;-50
2022/03/17 23:39:31;;;;;;;16.80;8.60;;;22.70;62.50;;;;;;219003;1274;24208;-50
2022/03/17 23:44:34;;;;;;;20.20;9.00;;;22.70;61.90;;;;;;221164;1274;22573;-51
2022/03/17 23:49:39;;;;;;;15.30;7.90;;;22.60;62.00;;;;;;218869;1274;22570;-50
2022/03/17 23:54:45;;;;;;;16.30;8.30;;;22.60;62.10;;;;;;218703;1274;22635;-49
2022/03/17 23:59:48;;;;;;;19.60;8.30;;;22.50;62.20;;;;;;219960;1273;22656;-49
